sensor_id;sensor_type;location;lat;lon;timestamp;P1;durP1;ratioP1;P2;durP2;ratioP2
25948;SDS011;13961;51.178;4.448;2022-09-09T00:07:06;6.22;;;2.50;;
25948;SDS011;13961;51.178;4.448;2022-09-09T00:13:09;5.57;;;2.50;;
25948;SDS011;13961;51.178;4.448;2022-09-09T00:15:19;5.47;;;2.83;;
25948;SDS011;13961;51.178;4.448;2022-09-09T00:17:56;6.78;;;2.75;;
25948;SDS011;13961;51.178;4.448;2022-09-09T00:20:48;6.47;;;2.47;;
25948;SDS011;13961;51.178;4.448;2022-09-09T00:28:46;6.07;;;2.17;;
25948;SDS011;13961;51.178;4.448;2022-09-09T00:31:40;7.33;;;2.93;;
25948;SDS011;13961;51.178;4.448;2022-09-09T00:36:44;5.15;;;2.00;;
25948;SDS011;13961;51.178;4.448;2022-09-09T00:39:18;8.00;;;2.60;;
25948;SDS011;13961;51.178;4.448;2022-09-09T00:42:08;7.18;;;2.20;;
25948;SDS011;13961;51.178;4.448;2022-09-09T00:45:01;4.73;;;1.87;;
25948;SDS011;13961;51.178;4.448;2022-09-09T00:58:13;4.05;;;2.03;;
25948;SDS011;13961;51.178;4.448;2022-09-09T01:00:41;7.43;;;2.20;;
25948;SDS011;13961;51.178;4.448;2022-09-09T01:09:01;5.55;;;1.90;;
25948;SDS011;13961;51.178;4.448;2022-09-09T01:17:00;3.15;;;2.13;;
25948;SDS011;13961;51.178;4.448;2022-09-09T01:22:09;4.53;;;2.70;;
25948;SDS011;13961;51.178;4.448;2022-09-09T01:27:48;5.00;;;2.10;;
25948;SDS011;13961;51.178;4.448;2022-09-09T01:30:16;6.45;;;2.22;;
25948;SDS011;13961;51.178;4.448;2022-09-09T01:32:44;7.63;;;2.35;;
25948;SDS011;13961;51.178;4.448;2022-09-09T01:35:19;3.65;;;2.60;;
25948;SDS011;13961;51.178;4.448;2022-09-09T01:37:49;8.40;;;2.85;;
25948;SDS011;13961;51.178;4.448;2022-09-09T01:40:15;3.05;;;2.17;;
25948;SDS011;13961;51.178;4.448;2022-09-09T01:42:41;4.63;;;2.30;;
25948;SDS011;13961;51.178;4.448;2022-09-09T01:45:06;6.38;;;2.30;;
25948;SDS011;13961;51.178;4.448;2022-09-09T01:47:33;4.18;;;2.55;;
25948;SDS011;13961;51.178;4.448;2022-09-09T01:49:59;4.95;;;2.33;;
25948;SDS011;13961;51.178;4.448;2022-09-09T01:52:27;5.65;;;2.53;;
25948;SDS011;13961;51.178;4.448;2022-09-09T01:54:54;3.50;;;2.30;;
25948;SDS011;13961;51.178;4.448;2022-09-09T02:00:14;6.28;;;2.33;;
25948;SDS011;13961;51.178;4.448;2022-09-09T02:03:19;5.70;;;1.92;;
25948;SDS011;13961;51.178;4.448;2022-09-09T02:06:05;4.10;;;1.95;;
25948;SDS011;13961;51.178;4.448;2022-09-09T02:08:45;4.80;;;2.10;;
25948;SDS011;13961;51.178;4.448;2022-09-09T02:11:18;6.80;;;2.30;;
25948;SDS011;13961;51.178;4.448;2022-09-09T02:13:46;4.00;;;1.98;;
25948;SDS011;13961;51.178;4.448;2022-09-09T02:16:15;6.47;;;2.05;;
25948;SDS011;13961;51.178;4.448;2022-09-09T02:18:50;9.48;;;2.00;;
25948;SDS011;13961;51.178;4.448;2022-09-09T02:21:17;5.32;;;1.98;;
25948;SDS011;13961;51.178;4.448;2022-09-09T02:23:43;4.28;;;1.85;;
25948;SDS011;13961;51.178;4.448;2022-09-09T02:26:11;3.00;;;1.90;;
25948;SDS011;13961;51.178;4.448;2022-09-09T02:28:44;7.70;;;2.08;;
25948;SDS011;13961;51.178;4.448;2022-09-09T02:31:11;7.22;;;2.40;;
25948;SDS011;13961;51.178;4.448;2022-09-09T02:33:43;1.98;;;1.67;;
25948;SDS011;13961;51.178;4.448;2022-09-09T02:36:11;3.85;;;2.45;;
25948;SDS011;13961;51.178;4.448;2022-09-09T02:38:42;4.35;;;2.00;;
25948;SDS011;13961;51.178;4.448;2022-09-09T02:41:18;4.18;;;1.85;;
25948;SDS011;13961;51.178;4.448;2022-09-09T02:43:47;8.02;;;2.10;;
25948;SDS011;13961;51.178;4.448;2022-09-09T02:49:22;5.53;;;2.10;;
25948;SDS011;13961;51.178;4.448;2022-09-09T02:52:13;4.53;;;2.35;;
25948;SDS011;13961;51.178;4.448;2022-09-09T02:54:43;4.82;;;2.10;;
25948;SDS011;13961;51.178;4.448;2022-09-09T02:57:12;4.85;;;2.33;;
25948;SDS011;13961;51.178;4.448;2022-09-09T02:59:38;7.97;;;2.20;;
25948;SDS011;13961;51.178;4.448;2022-09-09T03:02:04;7.95;;;2.00;;
25948;SDS011;13961;51.178;4.448;2022-09-09T03:04:30;6.88;;;2.10;;
25948;SDS011;13961;51.178;4.448;2022-09-09T03:06:56;3.35;;;2.08;;
25948;SDS011;13961;51.178;4.448;2022-09-09T03:09:23;6.07;;;2.42;;
25948;SDS011;13961;51.178;4.448;2022-09-09T03:11:50;7.45;;;1.88;;
25948;SDS011;13961;51.178;4.448;2022-09-09T03:14:16;4.47;;;1.90;;
25948;SDS011;13961;51.178;4.448;2022-09-09T03:16:46;7.07;;;1.92;;
25948;SDS011;13961;51.178;4.448;2022-09-09T03:19:12;6.07;;;2.10;;
25948;SDS011;13961;51.178;4.448;2022-09-09T03:21:37;4.10;;;2.05;;
25948;SDS011;13961;51.178;4.448;2022-09-09T03:24:04;9.55;;;2.08;;
25948;SDS011;13961;51.178;4.448;2022-09-09T03:26:30;5.60;;;1.98;;
25948;SDS011;13961;51.178;4.448;2022-09-09T03:28:56;4.80;;;2.00;;
25948;SDS011;13961;51.178;4.448;2022-09-09T03:31:22;8.00;;;2.15;;
25948;SDS011;13961;51.178;4.448;2022-09-09T03:33:47;6.70;;;1.80;;
25948;SDS011;13961;51.178;4.448;2022-09-09T03:36:13;5.82;;;2.13;;
25948;SDS011;13961;51.178;4.448;2022-09-09T03:38:40;9.48;;;1.83;;
25948;SDS011;13961;51.178;4.448;2022-09-09T03:41:06;6.55;;;2.28;;
25948;SDS011;13961;51.178;4.448;2022-09-09T03:43:33;8.52;;;2.17;;
25948;SDS011;13961;51.178;4.448;2022-09-09T03:45:59;3.47;;;2.00;;
25948;SDS011;13961;51.178;4.448;2022-09-09T03:48:25;4.72;;;1.90;;
25948;SDS011;13961;51.178;4.448;2022-09-09T03:50:53;11.52;;;2.10;;
25948;SDS011;13961;51.178;4.448;2022-09-09T03:53:21;7.10;;;2.08;;
25948;SDS011;13961;51.178;4.448;2022-09-09T03:55:49;10.52;;;3.00;;
25948;SDS011;13961;51.178;4.448;2022-09-09T03:58:19;7.72;;;2.15;;
25948;SDS011;13961;51.178;4.448;2022-09-09T04:00:56;5.72;;;2.22;;
25948;SDS011;13961;51.178;4.448;2022-09-09T04:03:24;10.32;;;2.15;;
25948;SDS011;13961;51.178;4.448;2022-09-09T04:05:53;6.82;;;2.20;;
25948;SDS011;13961;51.178;4.448;2022-09-09T04:08:20;10.55;;;3.10;;
25948;SDS011;13961;51.178;4.448;2022-09-09T04:10:50;6.35;;;2.50;;
25948;SDS011;13961;51.178;4.448;2022-09-09T04:13:16;7.45;;;2.10;;
25948;SDS011;13961;51.178;4.448;2022-09-09T04:15:43;4.53;;;1.90;;
25948;SDS011;13961;51.178;4.448;2022-09-09T04:18:14;7.32;;;2.35;;
25948;SDS011;13961;51.178;4.448;2022-09-09T04:20:40;6.13;;;1.80;;
25948;SDS011;13961;51.178;4.448;2022-09-09T04:23:08;10.48;;;2.30;;
25948;SDS011;13961;51.178;4.448;2022-09-09T04:25:34;6.75;;;1.88;;
25948;SDS011;13961;51.178;4.448;2022-09-09T04:27:59;9.45;;;2.53;;
25948;SDS011;13961;51.178;4.448;2022-09-09T04:30:25;10.10;;;2.88;;
25948;SDS011;13961;51.178;4.448;2022-09-09T04:32:52;12.50;;;2.22;;
25948;SDS011;13961;51.178;4.448;2022-09-09T04:35:17;5.18;;;2.13;;
25948;SDS011;13961;51.178;4.448;2022-09-09T04:37:44;7.88;;;2.17;;
25948;SDS011;13961;51.178;4.448;2022-09-09T04:40:10;7.72;;;2.60;;
25948;SDS011;13961;51.178;4.448;2022-09-09T04:42:37;6.38;;;2.20;;
25948;SDS011;13961;51.178;4.448;2022-09-09T04:45:04;8.50;;;1.83;;
25948;SDS011;13961;51.178;4.448;2022-09-09T04:47:32;8.10;;;1.92;;
25948;SDS011;13961;51.178;4.448;2022-09-09T04:50:00;8.20;;;2.08;;
25948;SDS011;13961;51.178;4.448;2022-09-09T04:52:25;8.25;;;2.10;;
25948;SDS011;13961;51.178;4.448;2022-09-09T04:54:51;13.02;;;2.50;;
25948;SDS011;13961;51.178;4.448;2022-09-09T04:57:19;5.90;;;2.17;;
25948;SDS011;13961;51.178;4.448;2022-09-09T04:59:45;8.75;;;1.90;;
25948;SDS011;13961;51.178;4.448;2022-09-09T05:02:10;11.85;;;2.10;;
25948;SDS011;13961;51.178;4.448;2022-09-09T05:04:36;8.07;;;2.00;;
25948;SDS011;13961;51.178;4.448;2022-09-09T05:07:02;4.25;;;1.85;;
25948;SDS011;13961;51.178;4.448;2022-09-09T05:09:28;9.65;;;2.15;;
25948;SDS011;13961;51.178;4.448;2022-09-09T05:11:54;4.63;;;1.55;;
25948;SDS011;13961;51.178;4.448;2022-09-09T05:14:20;7.93;;;2.13;;
25948;SDS011;13961;51.178;4.448;2022-09-09T05:16:46;8.65;;;2.25;;
25948;SDS011;13961;51.178;4.448;2022-09-09T05:19:12;10.18;;;2.00;;
25948;SDS011;13961;51.178;4.448;2022-09-09T05:21:38;8.63;;;2.17;;
25948;SDS011;13961;51.178;4.448;2022-09-09T05:24:03;10.90;;;2.22;;
25948;SDS011;13961;51.178;4.448;2022-09-09T05:26:29;9.63;;;2.10;;
25948;SDS011;13961;51.178;4.448;2022-09-09T05:28:55;8.02;;;2.40;;
25948;SDS011;13961;51.178;4.448;2022-09-09T05:31:21;7.18;;;2.17;;
25948;SDS011;13961;51.178;4.448;2022-09-09T05:33:47;9.65;;;2.50;;
25948;SDS011;13961;51.178;4.448;2022-09-09T05:36:18;8.07;;;2.70;;
25948;SDS011;13961;51.178;4.448;2022-09-09T05:38:45;11.80;;;2.30;;
25948;SDS011;13961;51.178;4.448;2022-09-09T05:41:12;6.85;;;2.40;;
25948;SDS011;13961;51.178;4.448;2022-09-09T05:43:40;8.05;;;2.33;;
25948;SDS011;13961;51.178;4.448;2022-09-09T05:46:11;10.18;;;2.50;;
25948;SDS011;13961;51.178;4.448;2022-09-09T05:48:42;6.85;;;2.38;;
25948;SDS011;13961;51.178;4.448;2022-09-09T05:51:13;8.07;;;3.03;;
25948;SDS011;13961;51.178;4.448;2022-09-09T05:53:40;9.07;;;2.10;;
25948;SDS011;13961;51.178;4.448;2022-09-09T05:56:10;7.97;;;2.67;;
25948;SDS011;13961;51.178;4.448;2022-09-09T05:58:39;10.20;;;2.17;;
25948;SDS011;13961;51.178;4.448;2022-09-09T06:01:09;8.90;;;2.95;;
25948;SDS011;13961;51.178;4.448;2022-09-09T06:03:37;10.73;;;3.30;;
25948;SDS011;13961;51.178;4.448;2022-09-09T06:06:05;6.05;;;1.60;;
25948;SDS011;13961;51.178;4.448;2022-09-09T06:08:33;7.68;;;2.30;;
25948;SDS011;13961;51.178;4.448;2022-09-09T06:11:06;7.22;;;2.15;;
25948;SDS011;13961;51.178;4.448;2022-09-09T06:13:41;4.90;;;1.77;;
25948;SDS011;13961;51.178;4.448;2022-09-09T06:16:10;5.50;;;1.85;;
25948;SDS011;13961;51.178;4.448;2022-09-09T06:18:40;7.50;;;1.83;;
25948;SDS011;13961;51.178;4.448;2022-09-09T06:21:07;11.23;;;2.25;;
25948;SDS011;13961;51.178;4.448;2022-09-09T06:23:39;4.55;;;1.70;;
25948;SDS011;13961;51.178;4.448;2022-09-09T06:26:06;9.60;;;2.35;;
25948;SDS011;13961;51.178;4.448;2022-09-09T06:28:36;6.60;;;1.70;;
25948;SDS011;13961;51.178;4.448;2022-09-09T06:31:03;10.95;;;2.13;;
25948;SDS011;13961;51.178;4.448;2022-09-09T06:33:30;8.45;;;2.40;;
25948;SDS011;13961;51.178;4.448;2022-09-09T06:35:59;7.22;;;1.70;;
25948;SDS011;13961;51.178;4.448;2022-09-09T06:38:25;6.22;;;1.88;;
25948;SDS011;13961;51.178;4.448;2022-09-09T06:40:52;5.38;;;1.70;;
25948;SDS011;13961;51.178;4.448;2022-09-09T06:43:19;9.35;;;1.60;;
25948;SDS011;13961;51.178;4.448;2022-09-09T06:45:52;7.38;;;1.80;;
25948;SDS011;13961;51.178;4.448;2022-09-09T06:48:19;9.93;;;2.08;;
25948;SDS011;13961;51.178;4.448;2022-09-09T06:50:44;3.58;;;1.40;;
25948;SDS011;13961;51.178;4.448;2022-09-09T06:53:11;4.88;;;1.60;;
25948;SDS011;13961;51.178;4.448;2022-09-09T06:55:36;9.52;;;1.85;;
25948;SDS011;13961;51.178;4.448;2022-09-09T06:58:02;8.35;;;1.77;;
25948;SDS011;13961;51.178;4.448;2022-09-09T07:00:32;5.80;;;1.65;;
25948;SDS011;13961;51.178;4.448;2022-09-09T07:02:58;4.25;;;1.50;;
25948;SDS011;13961;51.178;4.448;2022-09-09T07:05:23;4.93;;;1.63;;
25948;SDS011;13961;51.178;4.448;2022-09-09T07:07:50;6.53;;;1.73;;
25948;SDS011;13961;51.178;4.448;2022-09-09T07:10:16;8.80;;;2.00;;
25948;SDS011;13961;51.178;4.448;2022-09-09T07:12:42;7.07;;;1.85;;
25948;SDS011;13961;51.178;4.448;2022-09-09T07:15:08;11.02;;;2.28;;
25948;SDS011;13961;51.178;4.448;2022-09-09T07:17:34;4.40;;;1.83;;
25948;SDS011;13961;51.178;4.448;2022-09-09T07:20:00;4.93;;;1.73;;
25948;SDS011;13961;51.178;4.448;2022-09-09T07:22:27;5.80;;;2.13;;
25948;SDS011;13961;51.178;4.448;2022-09-09T07:24:53;5.70;;;1.75;;
25948;SDS011;13961;51.178;4.448;2022-09-09T07:27:19;10.38;;;1.65;;
25948;SDS011;13961;51.178;4.448;2022-09-09T07:29:45;6.82;;;1.50;;
25948;SDS011;13961;51.178;4.448;2022-09-09T07:32:10;6.07;;;1.45;;
25948;SDS011;13961;51.178;4.448;2022-09-09T07:34:36;5.70;;;1.60;;
25948;SDS011;13961;51.178;4.448;2022-09-09T07:37:02;4.50;;;1.48;;
25948;SDS011;13961;51.178;4.448;2022-09-09T07:39:27;4.85;;;1.15;;
25948;SDS011;13961;51.178;4.448;2022-09-09T07:41:54;4.97;;;1.42;;
25948;SDS011;13961;51.178;4.448;2022-09-09T07:44:21;3.65;;;1.13;;
25948;SDS011;13961;51.178;4.448;2022-09-09T07:46:48;5.80;;;1.50;;
25948;SDS011;13961;51.178;4.448;2022-09-09T07:49:14;8.63;;;1.73;;
25948;SDS011;13961;51.178;4.448;2022-09-09T07:51:41;5.38;;;1.67;;
25948;SDS011;13961;51.178;4.448;2022-09-09T07:54:09;7.45;;;1.67;;
25948;SDS011;13961;51.178;4.448;2022-09-09T07:56:37;8.68;;;1.95;;
25948;SDS011;13961;51.178;4.448;2022-09-09T07:59:04;6.57;;;1.52;;
25948;SDS011;13961;51.178;4.448;2022-09-09T08:01:35;4.82;;;1.33;;
25948;SDS011;13961;51.178;4.448;2022-09-09T08:04:05;1.40;;;1.02;;
25948;SDS011;13961;51.178;4.448;2022-09-09T08:06:37;8.57;;;1.77;;
25948;SDS011;13961;51.178;4.448;2022-09-09T08:09:05;4.88;;;1.40;;
25948;SDS011;13961;51.178;4.448;2022-09-09T08:11:31;4.40;;;1.27;;
25948;SDS011;13961;51.178;4.448;2022-09-09T08:13:58;3.33;;;1.58;;
25948;SDS011;13961;51.178;4.448;2022-09-09T08:16:32;4.93;;;1.58;;
25948;SDS011;13961;51.178;4.448;2022-09-09T08:19:02;3.58;;;1.42;;
25948;SDS011;13961;51.178;4.448;2022-09-09T08:21:29;5.80;;;1.70;;
25948;SDS011;13961;51.178;4.448;2022-09-09T08:23:58;7.53;;;1.27;;
25948;SDS011;13961;51.178;4.448;2022-09-09T08:28:53;4.13;;;1.35;;
25948;SDS011;13961;51.178;4.448;2022-09-09T08:31:23;7.10;;;1.85;;
25948;SDS011;13961;51.178;4.448;2022-09-09T08:33:53;5.03;;;1.60;;
25948;SDS011;13961;51.178;4.448;2022-09-09T08:36:20;9.55;;;1.33;;
25948;SDS011;13961;51.178;4.448;2022-09-09T08:38:50;4.22;;;1.40;;
25948;SDS011;13961;51.178;4.448;2022-09-09T08:52:39;5.85;;;1.55;;
25948;SDS011;13961;51.178;4.448;2022-09-09T08:55:34;6.20;;;1.95;;
25948;SDS011;13961;51.178;4.448;2022-09-09T08:58:11;4.47;;;1.33;;
25948;SDS011;13961;51.178;4.448;2022-09-09T09:01:02;6.72;;;1.92;;
25948;SDS011;13961;51.178;4.448;2022-09-09T09:09:39;3.20;;;1.85;;
25948;SDS011;13961;51.178;4.448;2022-09-09T09:12:19;4.75;;;1.70;;
25948;SDS011;13961;51.178;4.448;2022-09-09T09:14:48;7.82;;;1.80;;
25948;SDS011;13961;51.178;4.448;2022-09-09T09:17:15;7.57;;;1.95;;
25948;SDS011;13961;51.178;4.448;2022-09-09T09:19:44;5.55;;;1.88;;
25948;SDS011;13961;51.178;4.448;2022-09-09T09:30:26;5.97;;;1.70;;
25948;SDS011;13961;51.178;4.448;2022-09-09T09:33:06;4.75;;;1.40;;
25948;SDS011;13961;51.178;4.448;2022-09-09T09:35:45;4.60;;;1.63;;
25948;SDS011;13961;51.178;4.448;2022-09-09T09:38:18;4.25;;;1.60;;
25948;SDS011;13961;51.178;4.448;2022-09-09T09:40:53;5.25;;;1.92;;
25948;SDS011;13961;51.178;4.448;2022-09-09T09:43:33;3.80;;;1.55;;
25948;SDS011;13961;51.178;4.448;2022-09-09T09:46:00;3.30;;;1.90;;
25948;SDS011;13961;51.178;4.448;2022-09-09T09:48:28;2.83;;;1.60;;
25948;SDS011;13961;51.178;4.448;2022-09-09T09:53:33;5.20;;;2.00;;
25948;SDS011;13961;51.178;4.448;2022-09-09T09:56:05;5.45;;;1.50;;
25948;SDS011;13961;51.178;4.448;2022-09-09T09:58:48;5.45;;;1.83;;
25948;SDS011;13961;51.178;4.448;2022-09-09T10:04:16;7.00;;;1.58;;
25948;SDS011;13961;51.178;4.448;2022-09-09T10:06:45;3.17;;;1.30;;
25948;SDS011;13961;51.178;4.448;2022-09-09T10:09:45;2.85;;;1.25;;
25948;SDS011;13961;51.178;4.448;2022-09-09T10:20:36;4.13;;;1.60;;
25948;SDS011;13961;51.178;4.448;2022-09-09T10:34:06;5.07;;;1.65;;
25948;SDS011;13961;51.178;4.448;2022-09-09T10:36:40;2.83;;;1.27;;
25948;SDS011;13961;51.178;4.448;2022-09-09T10:42:13;4.40;;;1.20;;
25948;SDS011;13961;51.178;4.448;2022-09-09T10:55:45;4.63;;;1.20;;
25948;SDS011;13961;51.178;4.448;2022-09-09T10:58:59;3.13;;;1.25;;
25948;SDS011;13961;51.178;4.448;2022-09-09T11:01:22;7.32;;;1.42;;
25948;SDS011;13961;51.178;4.448;2022-09-09T11:03:56;4.75;;;1.35;;
25948;SDS011;13961;51.178;4.448;2022-09-09T11:06:37;3.83;;;1.55;;
25948;SDS011;13961;51.178;4.448;2022-09-09T11:09:08;2.15;;;1.02;;
25948;SDS011;13961;51.178;4.448;2022-09-09T11:11:49;6.22;;;1.00;;
25948;SDS011;13961;51.178;4.448;2022-09-09T11:16:59;2.92;;;1.20;;
25948;SDS011;13961;51.178;4.448;2022-09-09T11:19:41;3.38;;;1.30;;
25948;SDS011;13961;51.178;4.448;2022-09-09T11:38:45;4.63;;;1.00;;
25948;SDS011;13961;51.178;4.448;2022-09-09T11:41:12;3.27;;;0.97;;
25948;SDS011;13961;51.178;4.448;2022-09-09T11:43:44;4.10;;;1.08;;
25948;SDS011;13961;51.178;4.448;2022-09-09T11:46:12;2.22;;;0.75;;
25948;SDS011;13961;51.178;4.448;2022-09-09T11:48:43;3.28;;;1.00;;
25948;SDS011;13961;51.178;4.448;2022-09-09T11:53:54;2.67;;;0.80;;
25948;SDS011;13961;51.178;4.448;2022-09-09T11:56:33;2.75;;;1.17;;
25948;SDS011;13961;51.178;4.448;2022-09-09T12:02:32;2.05;;;0.70;;
25948;SDS011;13961;51.178;4.448;2022-09-09T12:04:54;2.70;;;0.80;;
25948;SDS011;13961;51.178;4.448;2022-09-09T12:10:23;4.00;;;1.00;;
25948;SDS011;13961;51.178;4.448;2022-09-09T12:13:07;2.08;;;0.65;;
25948;SDS011;13961;51.178;4.448;2022-09-09T12:15:48;1.65;;;0.77;;
25948;SDS011;13961;51.178;4.448;2022-09-09T12:18:14;2.08;;;0.82;;
25948;SDS011;13961;51.178;4.448;2022-09-09T12:20:59;2.50;;;0.70;;
25948;SDS011;13961;51.178;4.448;2022-09-09T12:23:45;3.08;;;0.68;;
25948;SDS011;13961;51.178;4.448;2022-09-09T12:26:39;0.93;;;0.70;;
25948;SDS011;13961;51.178;4.448;2022-09-09T12:31:48;1.38;;;0.88;;
25948;SDS011;13961;51.178;4.448;2022-09-09T12:36:58;2.72;;;0.98;;
25948;SDS011;13961;51.178;4.448;2022-09-09T12:39:30;1.73;;;0.90;;
25948;SDS011;13961;51.178;4.448;2022-09-09T12:42:15;2.15;;;0.90;;
25948;SDS011;13961;51.178;4.448;2022-09-09T12:44:50;2.15;;;0.80;;
25948;SDS011;13961;51.178;4.448;2022-09-09T12:47:20;3.53;;;1.05;;
25948;SDS011;13961;51.178;4.448;2022-09-09T12:49:50;1.55;;;1.00;;
25948;SDS011;13961;51.178;4.448;2022-09-09T12:52:22;3.33;;;1.00;;
25948;SDS011;13961;51.178;4.448;2022-09-09T12:54:54;1.60;;;0.93;;
25948;SDS011;13961;51.178;4.448;2022-09-09T12:57:21;2.05;;;1.00;;
25948;SDS011;13961;51.178;4.448;2022-09-09T12:59:50;3.28;;;1.05;;
25948;SDS011;13961;51.178;4.448;2022-09-09T13:02:18;6.18;;;1.05;;
25948;SDS011;13961;51.178;4.448;2022-09-09T13:04:46;1.40;;;0.73;;
25948;SDS011;13961;51.178;4.448;2022-09-09T13:07:12;2.58;;;0.90;;
25948;SDS011;13961;51.178;4.448;2022-09-09T13:09:41;1.75;;;1.35;;
25948;SDS011;13961;51.178;4.448;2022-09-09T13:12:10;2.60;;;0.80;;
25948;SDS011;13961;51.178;4.448;2022-09-09T13:14:40;2.05;;;0.85;;
25948;SDS011;13961;51.178;4.448;2022-09-09T13:17:17;2.25;;;0.98;;
25948;SDS011;13961;51.178;4.448;2022-09-09T13:19:45;1.45;;;0.90;;
25948;SDS011;13961;51.178;4.448;2022-09-09T13:27:50;2.90;;;0.90;;
25948;SDS011;13961;51.178;4.448;2022-09-09T13:30:22;3.20;;;1.00;;
25948;SDS011;13961;51.178;4.448;2022-09-09T13:38:21;1.10;;;1.00;;
25948;SDS011;13961;51.178;4.448;2022-09-09T13:41:03;1.65;;;0.82;;
25948;SDS011;13961;51.178;4.448;2022-09-09T13:43:37;2.63;;;1.30;;
25948;SDS011;13961;51.178;4.448;2022-09-09T13:54:02;1.88;;;0.93;;
25948;SDS011;13961;51.178;4.448;2022-09-09T13:56:33;2.28;;;1.00;;
25948;SDS011;13961;51.178;4.448;2022-09-09T13:59:00;3.45;;;1.00;;
25948;SDS011;13961;51.178;4.448;2022-09-09T14:01:26;4.70;;;0.95;;
25948;SDS011;13961;51.178;4.448;2022-09-09T14:03:52;2.22;;;0.80;;
25948;SDS011;13961;51.178;4.448;2022-09-09T14:06:18;2.85;;;0.80;;
25948;SDS011;13961;51.178;4.448;2022-09-09T14:08:44;0.80;;;0.75;;
25948;SDS011;13961;51.178;4.448;2022-09-09T14:11:11;1.55;;;0.82;;
25948;SDS011;13961;51.178;4.448;2022-09-09T14:13:38;1.27;;;0.80;;
25948;SDS011;13961;51.178;4.448;2022-09-09T14:16:04;2.70;;;0.70;;
25948;SDS011;13961;51.178;4.448;2022-09-09T14:18:29;2.40;;;0.90;;
25948;SDS011;13961;51.178;4.448;2022-09-09T14:20:55;1.42;;;0.80;;
25948;SDS011;13961;51.178;4.448;2022-09-09T14:23:22;1.92;;;0.80;;
25948;SDS011;13961;51.178;4.448;2022-09-09T14:25:47;3.17;;;0.80;;
25948;SDS011;13961;51.178;4.448;2022-09-09T14:28:13;1.30;;;0.90;;
25948;SDS011;13961;51.178;4.448;2022-09-09T14:30:40;1.95;;;0.85;;
25948;SDS011;13961;51.178;4.448;2022-09-09T14:33:10;2.42;;;0.90;;
25948;SDS011;13961;51.178;4.448;2022-09-09T14:35:37;2.90;;;0.85;;
25948;SDS011;13961;51.178;4.448;2022-09-09T14:38:03;3.65;;;0.90;;
25948;SDS011;13961;51.178;4.448;2022-09-09T14:40:29;2.42;;;1.10;;
25948;SDS011;13961;51.178;4.448;2022-09-09T14:42:55;1.70;;;0.65;;
25948;SDS011;13961;51.178;4.448;2022-09-09T14:45:21;2.83;;;0.93;;
25948;SDS011;13961;51.178;4.448;2022-09-09T14:47:51;2.25;;;0.80;;
25948;SDS011;13961;51.178;4.448;2022-09-09T14:50:18;2.33;;;0.90;;
25948;SDS011;13961;51.178;4.448;2022-09-09T14:52:44;4.45;;;1.17;;
25948;SDS011;13961;51.178;4.448;2022-09-09T14:55:11;1.08;;;0.80;;
25948;SDS011;13961;51.178;4.448;2022-09-09T14:57:37;1.98;;;1.02;;
25948;SDS011;13961;51.178;4.448;2022-09-09T15:00:03;4.43;;;0.90;;
25948;SDS011;13961;51.178;4.448;2022-09-09T15:02:30;2.75;;;0.63;;
25948;SDS011;13961;51.178;4.448;2022-09-09T15:04:56;1.73;;;0.82;;
25948;SDS011;13961;51.178;4.448;2022-09-09T15:07:25;1.63;;;0.80;;
25948;SDS011;13961;51.178;4.448;2022-09-09T15:09:52;2.05;;;0.63;;
25948;SDS011;13961;51.178;4.448;2022-09-09T15:12:18;2.10;;;0.80;;
25948;SDS011;13961;51.178;4.448;2022-09-09T15:14:44;2.35;;;0.80;;
25948;SDS011;13961;51.178;4.448;2022-09-09T15:17:10;2.83;;;0.68;;
25948;SDS011;13961;51.178;4.448;2022-09-09T15:19:36;1.98;;;0.60;;
25948;SDS011;13961;51.178;4.448;2022-09-09T15:22:02;1.67;;;0.68;;
25948;SDS011;13961;51.178;4.448;2022-09-09T15:24:30;4.13;;;1.10;;
25948;SDS011;13961;51.178;4.448;2022-09-09T15:26:56;1.75;;;0.82;;
25948;SDS011;13961;51.178;4.448;2022-09-09T15:29:22;4.68;;;0.70;;
25948;SDS011;13961;51.178;4.448;2022-09-09T15:31:48;1.55;;;0.60;;
25948;SDS011;13961;51.178;4.448;2022-09-09T15:34:14;1.15;;;0.60;;
25948;SDS011;13961;51.178;4.448;2022-09-09T15:36:41;1.95;;;0.65;;
25948;SDS011;13961;51.178;4.448;2022-09-09T15:39:16;1.63;;;0.70;;
25948;SDS011;13961;51.178;4.448;2022-09-09T15:41:44;1.13;;;0.60;;
25948;SDS011;13961;51.178;4.448;2022-09-09T15:44:10;2.90;;;0.60;;
25948;SDS011;13961;51.178;4.448;2022-09-09T15:46:49;1.85;;;0.70;;
25948;SDS011;13961;51.178;4.448;2022-09-09T15:49:20;1.65;;;0.98;;
25948;SDS011;13961;51.178;4.448;2022-09-09T15:51:51;2.53;;;0.73;;
25948;SDS011;13961;51.178;4.448;2022-09-09T15:54:19;5.00;;;0.90;;
25948;SDS011;13961;51.178;4.448;2022-09-09T15:56:49;2.08;;;0.82;;
25948;SDS011;13961;51.178;4.448;2022-09-09T15:59:17;2.55;;;0.80;;
25948;SDS011;13961;51.178;4.448;2022-09-09T16:01:43;1.23;;;0.77;;
25948;SDS011;13961;51.178;4.448;2022-09-09T16:04:08;1.17;;;0.50;;
25948;SDS011;13961;51.178;4.448;2022-09-09T16:06:34;2.35;;;0.80;;
25948;SDS011;13961;51.178;4.448;2022-09-09T16:09:02;3.08;;;0.80;;
25948;SDS011;13961;51.178;4.448;2022-09-09T16:11:30;2.25;;;0.73;;
25948;SDS011;13961;51.178;4.448;2022-09-09T16:13:59;0.98;;;0.75;;
25948;SDS011;13961;51.178;4.448;2022-09-09T16:16:26;1.23;;;0.73;;
25948;SDS011;13961;51.178;4.448;2022-09-09T16:18:54;1.55;;;1.00;;
25948;SDS011;13961;51.178;4.448;2022-09-09T16:23:52;2.70;;;1.00;;
25948;SDS011;13961;51.178;4.448;2022-09-09T16:26:18;5.57;;;1.13;;
25948;SDS011;13961;51.178;4.448;2022-09-09T16:28:44;5.18;;;1.30;;
25948;SDS011;13961;51.178;4.448;2022-09-09T16:31:12;2.50;;;1.05;;
25948;SDS011;13961;51.178;4.448;2022-09-09T16:33:42;4.05;;;1.80;;
25948;SDS011;13961;51.178;4.448;2022-09-09T16:36:09;1.63;;;1.10;;
25948;SDS011;13961;51.178;4.448;2022-09-09T16:38:37;4.78;;;1.30;;
25948;SDS011;13961;51.178;4.448;2022-09-09T16:41:04;2.03;;;1.13;;
25948;SDS011;13961;51.178;4.448;2022-09-09T16:43:31;1.48;;;1.02;;
25948;SDS011;13961;51.178;4.448;2022-09-09T16:45:57;1.83;;;1.45;;
25948;SDS011;13961;51.178;4.448;2022-09-09T16:48:26;2.85;;;1.17;;
25948;SDS011;13961;51.178;4.448;2022-09-09T16:50:52;2.75;;;1.55;;
25948;SDS011;13961;51.178;4.448;2022-09-09T16:53:17;4.28;;;1.67;;
25948;SDS011;13961;51.178;4.448;2022-09-09T16:55:43;2.97;;;2.15;;
25948;SDS011;13961;51.178;4.448;2022-09-09T16:58:12;3.17;;;1.80;;
25948;SDS011;13961;51.178;4.448;2022-09-09T17:00:38;3.33;;;2.03;;
25948;SDS011;13961;51.178;4.448;2022-09-09T17:03:03;2.60;;;2.10;;
25948;SDS011;13961;51.178;4.448;2022-09-09T17:05:30;7.15;;;2.67;;
25948;SDS011;13961;51.178;4.448;2022-09-09T17:07:55;3.35;;;2.35;;
25948;SDS011;13961;51.178;4.448;2022-09-09T17:10:24;3.67;;;2.42;;
25948;SDS011;13961;51.178;4.448;2022-09-09T17:12:50;2.90;;;2.25;;
25948;SDS011;13961;51.178;4.448;2022-09-09T17:15:16;3.83;;;2.45;;
25948;SDS011;13961;51.178;4.448;2022-09-09T17:17:43;4.88;;;2.53;;
25948;SDS011;13961;51.178;4.448;2022-09-09T17:20:09;3.55;;;2.25;;
25948;SDS011;13961;51.178;4.448;2022-09-09T17:22:35;4.15;;;2.40;;
25948;SDS011;13961;51.178;4.448;2022-09-09T17:25:01;5.10;;;2.13;;
25948;SDS011;13961;51.178;4.448;2022-09-09T17:27:28;4.28;;;2.33;;
25948;SDS011;13961;51.178;4.448;2022-09-09T17:29:56;4.38;;;2.40;;
25948;SDS011;13961;51.178;4.448;2022-09-09T17:32:22;2.97;;;2.20;;
25948;SDS011;13961;51.178;4.448;2022-09-09T17:34:47;6.47;;;2.33;;
25948;SDS011;13961;51.178;4.448;2022-09-09T17:37:13;4.10;;;2.35;;
25948;SDS011;13961;51.178;4.448;2022-09-09T17:39:39;6.57;;;2.95;;
25948;SDS011;13961;51.178;4.448;2022-09-09T17:42:05;3.22;;;2.30;;
25948;SDS011;13961;51.178;4.448;2022-09-09T17:44:32;10.43;;;2.90;;
25948;SDS011;13961;51.178;4.448;2022-09-09T17:46:58;4.85;;;3.47;;
25948;SDS011;13961;51.178;4.448;2022-09-09T17:49:24;5.55;;;2.90;;
25948;SDS011;13961;51.178;4.448;2022-09-09T17:51:50;4.50;;;3.05;;
25948;SDS011;13961;51.178;4.448;2022-09-09T17:54:17;9.10;;;4.95;;